Latest Weather Observations for Bickley

IDW60901

Issued at 10:01 pm WST Thursday 28 January 2021 (issued every 10 minutes, with the page automatically refreshed every 10 minutes)

About weather observations | Map of Perth area stations | Latest observations for Perth area | Other Formats
Station Details ID: 009240 Name: BICKLEY Lat: -32.01 Lon: 116.14 Height: 384.0 m
Data from the previous 72 hours. | See also: Recent months at Bickley
Date/Time
WST
Temp
°C
App
Temp
°C
Dew
Point
°C
Rel
Hum
%
Delta-T
°C
Wind Press
QNH
hPa
Press
MSL
hPa
Rain since
9am
mm
Dir  Spd
km/h
Gust
km/h
Spd
kts
Gust
kts
28/10:00pm 23.5 19.4 8.8 39 8.0 ESE 20 41 11 22 - - 0.0
28/09:30pm 23.8 19.6 8.2 37 8.4 SE 20 35 11 19 - - 0.0
28/09:00pm 24.1 20.0 7.7 35 8.8 ESE 19 30 10 16 - - 0.0
28/08:30pm 24.5 20.3 7.6 34 9.1 SE 19 30 10 16 - - 0.0
28/08:00pm 25.3 21.2 7.9 33 9.4 SE 19 30 10 16 - - 0.0
28/07:30pm 25.6 21.7 7.2 31 9.9 SE 17 32 9 17 - - 0.0
28/07:00pm 26.5 22.2 7.0 29 10.5 ESE 19 33 10 18 - - 0.0
28/06:30pm 27.6 23.7 6.9 27 11.2 SE 17 32 9 17 - - 0.0
28/06:00pm 28.3 24.4 7.0 26 11.6 SE 17 32 9 17 - - 0.0
28/05:30pm 28.8 24.6 7.4 26 11.7 ESE 19 33 10 18 - - 0.0
28/05:00pm 29.6 25.2 7.5 25 12.2 ESE 20 39 11 21 - - 0.0
28/04:30pm 29.8 24.7 7.7 25 12.2 ESE 24 33 13 18 - - 0.0
28/04:00pm 29.5 24.7 7.4 25 12.1 ESE 22 39 12 21 - - 0.0
28/03:30pm 29.9 26.2 7.8 25 12.3 SE 17 32 9 17 - - 0.0
28/03:00pm 29.8 25.7 8.8 27 11.8 ESE 20 39 11 21 - - 0.0
28/02:30pm 28.5 24.0 8.7 29 11.1 SE 22 41 12 22 - - 0.0
28/02:00pm 28.3 24.4 8.6 29 11.0 ESE 19 33 10 18 - - 0.0
28/01:30pm 27.2 23.7 8.6 31 10.3 SE 17 33 9 18 - - 0.0
28/01:00pm 26.6 23.4 8.6 32 9.9 SE 15 33 8 18 - - 0.0
28/12:30pm 26.1 22.9 9.9 36 9.1 SE 17 32 9 17 - - 0.0
28/12:00pm 25.1 21.8 9.4 37 8.7 ESE 17 32 9 17 - - 0.0
28/11:30am 24.6 21.3 10.8 42 7.8 ESE 19 35 10 19 - - 0.0
28/11:00am 23.1 20.4 10.5 45 7.1 ESE 15 33 8 18 - - 0.0
28/10:30am 22.8 20.1 11.8 50 6.3 ESE 17 32 9 17 - - 0.0
28/10:00am 21.4 18.7 11.7 54 5.5 E 17 32 9 17 - - 0.0
28/09:30am 20.4 17.8 11.9 58 4.8 E 17 32 9 17 - - 0.0
28/09:00am 18.5 15.6 11.1 62 4.1 ESE 17 30 9 16 - - 0.0
28/08:30am 17.4 14.9 11.0 66 3.5 ESE 15 32 8 17 - - 0.0
28/08:00am 16.1 12.7 11.3 73 2.6 ESE 20 35 11 19 - - 0.0
28/07:30am 14.6 11.8 10.0 74 2.4 SE 15 30 8 16 - - 0.0
28/07:00am 13.5 10.1 9.0 74 2.3 SE 17 32 9 17 - - 0.0
28/06:30am 12.2 9.2 7.7 74 2.2 SE 13 22 7 12 - - 0.0
28/06:00am 11.6 8.0 6.9 73 2.3 SE 15 24 8 13 - - 0.0
28/05:30am 11.7 8.0 6.4 70 2.6 SE 15 26 8 14 - - 0.0
28/05:00am 11.9 7.8 6.0 67 2.8 ESE 17 28 9 15 - - 0.0
28/04:30am 11.9 8.1 5.8 66 2.9 ESE 15 22 8 12 - - 0.0
28/04:00am 12.5 8.7 5.7 63 3.3 ESE 15 26 8 14 - - 0.0
28/03:30am 12.8 8.6 5.5 61 3.5 ESE 17 30 9 16 - - 0.0
28/03:00am 13.3 8.7 5.5 59 3.7 ESE 19 33 10 18 - - 0.0
28/02:30am 13.9 8.3 5.5 57 4.0 ESE 24 41 13 22 - - 0.0
28/02:00am 14.2 9.4 5.6 56 4.2 ESE 20 35 11 19 - - 0.0
28/01:30am 14.6 9.8 5.4 54 4.4 ESE 20 39 11 21 - - 0.0
28/01:00am 15.2 10.0 5.4 52 4.8 ESE 22 35 12 19 - - 0.0
28/12:30am 15.6 10.3 5.2 50 5.0 ESE 22 39 12 21 - - 0.0
28/12:00am 16.0 10.7 5.0 48 5.3 ESE 22 41 12 22 - - 0.0
 
Date/Time
WST
Temp
°C
App
Temp
°C
Dew
Point
°C
Rel
Hum
%
Delta-T
°C
Wind Press
QNH
hPa
Press
MSL
hPa
Rain since
9am
mm
Dir  Spd
km/h
Gust
km/h
Spd
kts
Gust
kts
27/11:30pm 15.9 11.5 4.6 47 5.4 ESE 17 30 9 16 - - 0.0
27/11:00pm 16.5 11.6 4.2 44 5.9 SE 19 32 10 17 - - 0.0
27/10:30pm 16.6 12.1 4.3 44 5.9 SE 17 28 9 15 - - 0.0
27/10:00pm 17.1 12.8 5.4 46 5.7 SE 17 28 9 15 - - 0.0
27/09:30pm 17.3 13.3 6.8 50 5.3 SE 17 24 9 13 - - 0.0
27/09:00pm 17.3 14.0 7.9 54 4.9 SSE 15 22 8 12 - - 0.0
27/08:30pm 17.6 15.2 8.5 55 4.8 SSW 11 15 6 8 - - 0.0
27/08:00pm 18.4 15.6 8.4 52 5.3 SW 13 22 7 12 - - 0.0
27/07:30pm 18.9 16.0 8.3 50 5.6 SW 13 22 7 12 - - 0.0
27/07:00pm 19.8 16.2 8.5 48 6.0 SW 17 26 9 14 - - 0.0
27/06:30pm 20.9 17.2 7.9 43 6.9 SW 17 28 9 15 - - 0.0
27/06:00pm 21.9 18.1 7.7 40 7.5 SW 17 33 9 18 - - 0.0
27/05:30pm 22.6 18.6 8.3 40 7.7 WSW 19 30 10 16 - - 0.0
27/05:00pm 23.1 19.1 9.1 41 7.7 WSW 20 33 11 18 - - 0.0
27/04:30pm 23.4 19.7 9.4 41 7.7 WSW 19 32 10 17 - - 0.0
27/04:00pm 24.3 22.2 9.8 40 8.1 SSW 11 24 6 13 - - 0.0
27/03:30pm 24.5 21.3 8.5 36 8.7 SSE 15 30 8 16 - - 0.0
27/03:00pm 23.9 20.1 7.5 35 8.8 SW 17 26 9 14 - - 0.0
27/02:30pm 23.7 22.0 9.7 41 7.8 SSW 9 26 5 14 - - 0.0
27/02:00pm 22.8 20.4 9.9 44 7.1 S 13 26 7 14 - - 0.0
27/01:30pm 23.0 21.0 10.1 44 7.2 SW 11 20 6 11 - - 0.0
27/01:00pm 21.1 18.3 11.4 54 5.5 SW 17 28 9 15 - - 0.0
27/12:30pm 20.9 19.0 11.8 56 5.2 SW 13 24 7 13 - - 0.0
27/12:00pm 20.1 18.3 12.1 60 4.5 SSW 13 24 7 13 - - 0.0
27/11:30am 20.0 18.6 12.3 61 4.4 S 11 20 6 11 - - 0.0
27/11:00am 19.1 17.4 12.6 66 3.7 S 13 22 7 12 - - 0.0
27/10:30am 19.2 18.3 13.6 70 3.3 SSW 11 17 6 9 - - 0.0
27/10:00am 18.4 17.8 13.5 73 2.8 SW 9 20 5 11 - - 0.0
27/09:30am 18.6 16.9 12.6 68 3.4 SW 13 22 7 12 - - 0.0
27/09:00am 18.8 17.1 12.5 67 3.6 SW 13 24 7 13 - - 0.0
27/08:30am 19.7 18.8 12.7 64 4.0 SW 9 20 5 11 - - 0.0
27/08:00am 17.8 16.3 11.8 68 3.4 SSW 11 20 6 11 - - 0.0
27/07:30am 17.3 16.5 11.6 69 3.2 S 7 13 4 7 - - 0.0
27/07:00am 16.1 14.9 11.5 74 2.5 SSE 9 13 5 7 - - 0.0
27/06:30am 13.8 11.9 10.6 81 1.7 S 11 15 6 8 - - 0.0
27/06:00am 13.1 11.0 9.9 81 1.7 S 11 20 6 11 - - 0.0
27/05:30am 13.0 10.8 9.4 79 1.9 SSE 11 20 6 11 - - 0.0
27/05:00am 12.8 10.2 9.4 80 1.8 S 13 26 7 14 - - 0.0
27/04:30am 12.7 10.1 9.3 80 1.8 S 13 17 7 9 - - 0.0
27/04:00am 12.9 10.3 9.4 79 1.8 SSW 13 17 7 9 - - 0.0
27/03:30am 13.1 10.5 9.4 78 1.9 SSW 13 22 7 12 - - 0.0
27/03:00am 13.6 11.1 9.8 78 2.0 SSW 13 22 7 12 - - 0.0
27/02:30am 13.9 10.8 10.3 79 1.9 SSW 17 22 9 12 - - 0.0
27/02:00am 14.0 11.3 10.4 79 1.9 SSW 15 24 8 13 - - 0.0
27/01:30am 14.1 11.1 10.5 79 1.9 SSW 17 24 9 13 - - 0.0
27/01:00am 14.5 11.5 10.5 77 2.1 SSW 17 28 9 15 - - 0.0
27/12:30am 14.6 11.2 10.6 77 2.1 SSW 19 28 10 15 - - 0.0
27/12:00am 14.9 12.0 10.9 77 2.2 SW 17 30 9 16 - - 0.0
 
Date/Time
WST
Temp
°C
App
Temp
°C
Dew
Point
°C
Rel
Hum
%
Delta-T
°C
Wind Press
QNH
hPa
Press
MSL
hPa
Rain since
9am
mm
Dir  Spd
km/h
Gust
km/h
Spd
kts
Gust
kts
26/11:30pm 15.2 11.9 11.0 76 2.3 SW 19 28 10 15 - - 0.0
26/11:00pm 15.3 12.5 11.3 77 2.2 SW 17 35 9 19 - - 0.0
26/10:30pm 15.4 12.4 11.8 79 2.0 SW 19 28 10 15 - - 0.0
26/10:00pm 15.7 13.0 11.7 77 2.2 SW 17 32 9 17 - - 0.0
26/09:30pm 16.0 13.4 12.0 77 2.2 SW 17 26 9 14 - - 0.0
26/09:00pm 16.4 13.3 12.2 76 2.3 WSW 20 30 11 16 - - 0.0
26/08:30pm 16.6 14.1 12.2 75 2.5 WSW 17 30 9 16 - - 0.0
26/08:00pm 16.8 14.5 11.9 73 2.7 WSW 15 26 8 14 - - 0.0
26/07:30pm 17.3 15.1 12.2 72 2.9 WSW 15 28 8 15 - - 0.0
26/07:00pm 18.1 15.2 12.3 69 3.3 WSW 19 35 10 19 - - 0.0
26/06:30pm 19.4 16.5 12.2 63 4.1 SW 19 30 10 16 - - 0.0
26/06:00pm 19.9 16.5 12.4 62 4.3 WSW 22 39 12 21 - - 0.0
26/05:30pm 21.1 18.0 12.3 57 5.0 WSW 20 35 11 19 - - 0.0
26/05:00pm 21.2 18.1 12.3 57 5.1 WSW 20 35 11 19 - - 0.0
26/04:30pm 20.9 17.8 12.1 57 5.0 WSW 20 41 11 22 - - 0.0
26/04:00pm 22.0 18.7 11.7 52 5.9 WSW 20 33 11 18 - - 0.0
26/03:30pm 22.6 19.2 10.7 47 6.7 WSW 19 32 10 17 - - 0.0
26/03:00pm 22.6 18.5 10.1 45 6.9 W 22 35 12 19 - - 0.0
26/02:30pm 24.0 20.2 11.0 44 7.4 W 22 33 12 18 - - 0.0
26/02:00pm 24.6 21.1 10.8 42 7.8 W 20 32 11 17 - - 0.0
26/01:30pm 24.2 21.4 10.1 41 7.9 W 15 24 8 13 - - 0.0
26/01:00pm 23.7 21.2 11.1 45 7.2 WSW 15 28 8 15 - - 0.0
26/12:30pm 24.2 21.4 11.2 44 7.4 W 17 30 9 16 - - 0.0
26/12:00pm 23.2 20.0 9.9 43 7.4 W 17 26 9 14 - - 0.0
26/11:30am 22.7 20.0 10.2 45 7.0 W 15 26 8 14 - - 0.0
26/11:00am 22.3 20.0 10.5 47 6.6 W 13 26 7 14 - - 0.0
26/10:30am 21.8 20.4 10.9 50 6.1 WNW 9 17 5 9 - - 0.0
26/10:00am 21.1 20.1 10.9 52 5.7 WSW 7 15 4 8 - - 0.0
26/09:30am 20.4 19.4 11.1 55 5.2 WNW 7 15 4 8 - - 0.0
26/09:00am 19.2 17.7 10.7 58 4.7 ENE 9 20 5 11 - - 0.0
26/08:30am 18.5 16.8 11.1 62 4.1 ENE 11 20 6 11 - - 0.0
26/08:00am 17.5 16.1 10.9 65 3.6 E 9 17 5 9 - - 0.0
26/07:30am 16.8 14.3 11.1 69 3.1 ESE 15 24 8 13 - - 0.0
26/07:00am 16.1 13.6 11.1 72 2.7 ESE 15 24 8 13 - - 0.0
26/06:30am 14.2 11.1 10.4 78 2.0 ESE 17 24 9 13 - - 0.0
26/06:00am 13.6 11.2 10.2 80 1.8 ESE 13 22 7 12 - - 0.0
26/05:30am 13.5 10.7 10.1 80 1.8 ESE 15 22 8 12 - - 0.0
26/05:00am 13.9 11.2 10.3 79 1.9 ESE 15 22 8 12 - - 0.0
26/04:30am 14.2 11.1 10.4 78 2.0 ESE 17 24 9 13 - - 0.0
26/04:00am 14.3 11.6 10.5 78 2.0 ESE 15 24 8 13 - - 0.0
26/03:30am 14.7 12.1 10.7 77 2.2 ESE 15 24 8 13 - - 0.0
26/03:00am 15.1 12.1 10.7 75 2.4 ESE 17 28 9 15 - - 0.0
26/02:30am 15.2 12.2 10.8 75 2.4 ESE 17 24 9 13 - - 0.0
26/02:00am 15.4 12.9 11.0 75 2.4 ESE 15 24 8 13 - - 0.0
26/01:30am 15.6 12.8 11.4 76 2.3 SE 17 24 9 13 - - 0.0
26/01:00am 15.7 13.5 12.1 79 2.0 SE 15 24 8 13 - - 0.0
26/12:30am 15.6 13.8 12.2 80 1.9 S 13 20 7 11 - - 0.0
26/12:00am 15.6 14.0 11.6 77 2.2 S 11 15 6 8 - - 0.0
 
Date/Time
WST
Temp
°C
App
Temp
°C
Dew
Point
°C
Rel
Hum
%
Delta-T
°C
Wind Press
QNH
hPa
Press
MSL
hPa
Rain since
9am
mm
Dir  Spd
km/h
Gust
km/h
Spd
kts
Gust
kts
25/11:30pm 15.9 14.0 11.7 76 2.3 SSW 13 20 7 11 - - 0.0
25/11:00pm 16.1 13.8 11.7 75 2.4 SSW 15 22 8 12 - - 0.0
25/10:30pm 16.4 13.7 11.6 73 2.7 SSW 17 24 9 13 - - 0.0

Latest Capital City Observations: Canberra | Sydney | Melbourne | Brisbane | Adelaide | Perth | Hobart | Darwin

Other formats

Comma delimited format used in spreadsheet applications
http://www.bom.gov.au/fwo/IDW60901/IDW60901.95610.axf

JavaScript Object Notation format (JSON) in row-major order
http://www.bom.gov.au/fwo/IDW60901/IDW60901.95610.json

Data quality

Most of these data are generated automatically and are frequently updated. Quality checks on data are not normally performed. It is possible for incorrect values to appear. Refer to information at About Latest Weather Observations and please check the disclaimer before using these data.